Time;durP1;ratioP1;P1;durP2;ratioP2;P2;SDS_P1;SDS_P2;PMS_P1;PMS_P2;Temp;Humidity;BMP_temperature;BMP_pressure;BME280_temperature;BME280_humidity;BME280_pressure;Samples;Min_cycle;Max_cycle;Signal;HPM_P1;HPM_P2
2022/01/26 00:07:07;;;;;;;4.57;3.55;;;;;;;;;;4959503;28;20081;-58
2022/01/26 00:09:33;;;;;;;3.85;2.97;;;;;;;;;;4970979;28;20470;-57
2022/01/26 00:11:59;;;;;;;4.20;2.85;;;;;;;;;;4973089;28;20158;-56
2022/01/26 00:14:25;;;;;;;5.50;3.40;;;;;;;;;;4972740;28;20076;-58
2022/01/26 00:16:51;;;;;;;4.97;3.38;;;;;;;;;;4973341;28;20027;-56
2022/01/26 00:19:22;;;;;;;4.28;3.10;;;;;;;;;;4972852;28;20102;-58
2022/01/26 00:21:52;;;;;;;8.85;3.42;;;;;;;;;;4973103;28;20035;-58
2022/01/26 00:29:20;;;;;;;4.43;3.28;;;;;;;;;;4972521;28;20468;-57
2022/01/26 00:40:06;;;;;;;5.15;3.80;;;;;;;;;;4970761;28;20403;-59
2022/01/26 00:42:37;;;;;;;5.97;4.13;;;;;;;;;;4984273;28;20117;-55
2022/01/26 00:45:07;;;;;;;4.55;3.47;;;;;;;;;;4976626;28;20146;-56
2022/01/26 00:47:33;;;;;;;5.00;3.40;;;;;;;;;;4976132;28;20471;-55
2022/01/26 00:50:04;;;;;;;6.07;3.70;;;;;;;;;;4976731;28;20042;-55
2022/01/26 00:52:39;;;;;;;6.20;4.00;;;;;;;;;;4975608;28;20193;-56
2022/01/26 00:55:07;;;;;;;5.97;4.05;;;;;;;;;;4976874;28;20251;-56
2022/01/26 00:57:33;;;;;;;4.85;3.58;;;;;;;;;;4975860;28;20038;-56
2022/01/26 00:59:59;;;;;;;6.85;3.95;;;;;;;;;;4976959;28;20606;-57
2022/01/26 01:02:26;;;;;;;5.75;4.03;;;;;;;;;;4976297;28;20042;-54
2022/01/26 01:04:53;;;;;;;4.95;3.40;;;;;;;;;;4976735;28;20014;-53
2022/01/26 01:07:22;;;;;;;5.07;3.97;;;;;;;;;;4981488;28;20391;-50
2022/01/26 01:09:48;;;;;;;5.15;3.78;;;;;;;;;;4983131;28;20025;-53
2022/01/26 01:12:14;;;;;;;4.93;3.53;;;;;;;;;;4985649;28;20380;-53
2022/01/26 01:14:42;;;;;;;5.95;4.30;;;;;;;;;;4984172;28;20116;-52
2022/01/26 01:17:12;;;;;;;7.80;4.43;;;;;;;;;;4982570;28;20460;-54
2022/01/26 01:19:45;;;;;;;4.88;3.50;;;;;;;;;;4983398;28;20027;-53
2022/01/26 01:33:03;;;;;;;5.47;3.58;;;;;;;;;;4983726;28;20042;-53
2022/01/26 01:35:31;;;;;;;6.40;4.25;;;;;;;;;;4978197;28;20029;-54
2022/01/26 01:37:58;;;;;;;6.00;4.18;;;;;;;;;;4975679;28;20391;-52
2022/01/26 01:40:24;;;;;;;5.13;3.53;;;;;;;;;;4975417;28;20026;-59
2022/01/26 01:42:50;;;;;;;6.13;3.70;;;;;;;;;;4975748;28;20169;-53
2022/01/26 01:45:16;;;;;;;6.32;3.50;;;;;;;;;;4975778;28;20427;-51
2022/01/26 01:47:42;;;;;;;5.68;3.97;;;;;;;;;;4974745;28;20475;-54
2022/01/26 01:50:11;;;;;;;5.35;3.92;;;;;;;;;;4975626;28;20085;-54
2022/01/26 01:52:37;;;;;;;5.57;4.00;;;;;;;;;;4975033;28;20055;-54
2022/01/26 01:55:05;;;;;;;6.15;4.07;;;;;;;;;;4974950;28;20023;-54
2022/01/26 01:57:31;;;;;;;5.45;3.90;;;;;;;;;;4975106;28;20113;-54
2022/01/26 01:59:57;;;;;;;6.50;4.32;;;;;;;;;;4975464;28;20428;-53
2022/01/26 02:02:23;;;;;;;6.13;3.90;;;;;;;;;;4975447;28;20126;-55
2022/01/26 02:04:49;;;;;;;6.03;4.43;;;;;;;;;;4975894;28;20034;-53
2022/01/26 02:07:15;;;;;;;7.15;4.35;;;;;;;;;;4975413;28;20027;-54
2022/01/26 02:09:41;;;;;;;5.13;3.80;;;;;;;;;;4974783;28;20082;-52
2022/01/26 02:12:15;;;;;;;7.35;4.38;;;;;;;;;;4975540;28;20030;-54
2022/01/26 02:14:47;;;;;;;6.57;3.58;;;;;;;;;;4974643;28;20392;-53
2022/01/26 02:52:46;;;;;;;8.15;3.55;;;;;;;;;;4974032;28;20035;-51
2022/01/26 03:03:36;;;;;;;5.95;3.50;;;;;;;;;;4973756;28;20404;-51
2022/01/26 03:06:07;;;;;;;4.40;3.40;;;;;;;;;;4974559;28;20026;-49
2022/01/26 03:08:38;;;;;;;4.75;3.80;;;;;;;;;;4973330;28;20484;-51
2022/01/26 03:11:10;;;;;;;5.17;3.87;;;;;;;;;;4974238;28;20037;-49
2022/01/26 03:13:42;;;;;;;4.65;3.22;;;;;;;;;;4973551;28;20411;-52
2022/01/26 03:16:16;;;;;;;4.55;3.08;;;;;;;;;;4974231;28;20027;-53
2022/01/26 03:19:00;;;;;;;4.70;3.80;;;;;;;;;;4973647;28;20134;-51
2022/01/26 03:21:46;;;;;;;3.65;2.97;;;;;;;;;;4973663;28;20448;-52
2022/01/26 03:29:56;;;;;;;5.38;3.25;;;;;;;;;;4973100;28;20058;-55
2022/01/26 03:35:28;;;;;;;4.10;3.50;;;;;;;;;;4960179;28;20131;-54
2022/01/26 03:37:56;;;;;;;3.25;2.63;;;;;;;;;;4973605;28;20085;-53
2022/01/26 03:40:30;;;;;;;4.63;3.42;;;;;;;;;;4973704;28;20019;-54
2022/01/26 03:42:57;;;;;;;5.32;3.47;;;;;;;;;;4979026;28;20494;-51
2022/01/26 03:45:23;;;;;;;3.53;2.85;;;;;;;;;;4973578;28;20031;-54
2022/01/26 03:47:49;;;;;;;4.85;3.17;;;;;;;;;;4973240;28;20019;-54
2022/01/26 03:50:15;;;;;;;4.25;3.33;;;;;;;;;;4973397;28;20031;-53
2022/01/26 03:52:41;;;;;;;4.65;3.55;;;;;;;;;;4973114;28;20027;-53
2022/01/26 03:55:07;;;;;;;5.35;3.17;;;;;;;;;;4973700;28;20037;-50
2022/01/26 03:57:33;;;;;;;4.78;3.53;;;;;;;;;;4972512;28;20030;-51
2022/01/26 03:59:59;;;;;;;3.75;3.25;;;;;;;;;;4973327;28;20383;-49
2022/01/26 04:02:25;;;;;;;5.18;3.38;;;;;;;;;;4973289;28;20123;-51
2022/01/26 04:04:53;;;;;;;3.75;3.05;;;;;;;;;;4973115;28;20026;-51
2022/01/26 04:07:19;;;;;;;4.90;3.70;;;;;;;;;;4973560;28;20038;-50
2022/01/26 04:09:45;;;;;;;4.32;3.28;;;;;;;;;;4972600;28;20027;-50
2022/01/26 04:12:11;;;;;;;4.25;3.20;;;;;;;;;;4972825;28;20045;-51
2022/01/26 04:14:38;;;;;;;4.15;3.13;;;;;;;;;;4972951;28;20102;-56
2022/01/26 04:17:04;;;;;;;4.45;3.20;;;;;;;;;;4970538;28;20105;-51
2022/01/26 04:19:33;;;;;;;4.38;3.30;;;;;;;;;;4971881;28;20154;-53
2022/01/26 04:22:20;;;;;;;3.70;2.78;;;;;;;;;;4973021;28;20031;-58
2022/01/26 04:24:51;;;;;;;4.07;3.30;;;;;;;;;;4972575;28;20252;-59
2022/01/26 04:27:35;;;;;;;4.28;3.08;;;;;;;;;;4972831;28;20033;-59
2022/01/26 04:30:02;;;;;;;4.50;3.00;;;;;;;;;;4972577;28;20050;-59
2022/01/26 04:32:28;;;;;;;4.22;3.10;;;;;;;;;;4972179;28;20041;-59
2022/01/26 04:34:55;;;;;;;3.35;2.70;;;;;;;;;;4973013;28;20451;-59
2022/01/26 04:40:20;;;;;;;4.13;2.90;;;;;;;;;;4942017;28;20380;-59
2022/01/26 04:43:00;;;;;;;4.22;3.22;;;;;;;;;;4980783;28;20256;-59
2022/01/26 04:45:26;;;;;;;4.15;3.20;;;;;;;;;;4972208;28;20038;-60
2022/01/26 04:47:52;;;;;;;4.53;3.20;;;;;;;;;;4972985;28;20033;-59
2022/01/26 04:50:18;;;;;;;4.72;3.10;;;;;;;;;;4972773;28;20097;-58
2022/01/26 04:52:46;;;;;;;5.32;3.42;;;;;;;;;;4971957;28;20023;-59
2022/01/26 04:55:12;;;;;;;4.25;3.20;;;;;;;;;;4973067;28;20018;-59
2022/01/26 04:57:38;;;;;;;4.25;3.15;;;;;;;;;;4972210;28;20082;-59
2022/01/26 05:00:09;;;;;;;4.00;3.05;;;;;;;;;;4972953;28;20035;-59
2022/01/26 05:02:35;;;;;;;4.45;3.75;;;;;;;;;;4972198;28;20118;-59
2022/01/26 05:05:01;;;;;;;5.35;3.05;;;;;;;;;;4973160;28;20102;-59
2022/01/26 05:07:27;;;;;;;3.90;3.15;;;;;;;;;;4972097;28;20445;-59
2022/01/26 05:09:53;;;;;;;3.10;2.42;;;;;;;;;;4972873;28;20109;-59
2022/01/26 05:12:19;;;;;;;4.15;3.47;;;;;;;;;;4970395;28;20031;-59
2022/01/26 05:14:47;;;;;;;4.13;2.75;;;;;;;;;;4972185;28;20023;-59
2022/01/26 05:17:14;;;;;;;3.97;3.20;;;;;;;;;;4972527;28;20078;-59
2022/01/26 05:19:40;;;;;;;5.53;3.80;;;;;;;;;;4972155;28;20050;-59
2022/01/26 05:22:06;;;;;;;5.18;3.50;;;;;;;;;;4972540;28;20139;-59
2022/01/26 05:24:32;;;;;;;4.82;3.15;;;;;;;;;;4974477;28;20471;-59
2022/01/26 05:26:58;;;;;;;5.00;2.92;;;;;;;;;;4975977;28;20097;-59
2022/01/26 05:29:24;;;;;;;4.50;3.00;;;;;;;;;;4975455;28;20122;-59
2022/01/26 05:31:50;;;;;;;4.20;2.92;;;;;;;;;;4976018;28;20468;-59
2022/01/26 05:34:16;;;;;;;4.15;3.00;;;;;;;;;;4976225;28;20030;-59
2022/01/26 05:36:42;;;;;;;4.70;3.20;;;;;;;;;;4975186;28;20058;-58
2022/01/26 05:39:08;;;;;;;4.97;3.28;;;;;;;;;;4975860;28;20113;-58
2022/01/26 05:41:37;;;;;;;4.18;3.70;;;;;;;;;;4977345;28;20039;-59
2022/01/26 05:44:03;;;;;;;5.30;3.38;;;;;;;;;;4981932;28;20027;-59
2022/01/26 05:46:37;;;;;;;5.90;3.38;;;;;;;;;;4975302;28;20058;-59
2022/01/26 05:49:03;;;;;;;5.63;3.17;;;;;;;;;;4976157;28;20456;-58
2022/01/26 05:51:32;;;;;;;5.00;3.17;;;;;;;;;;4975257;28;20030;-59
2022/01/26 05:53:58;;;;;;;4.13;3.35;;;;;;;;;;4975750;28;20031;-59
2022/01/26 05:56:24;;;;;;;3.88;3.00;;;;;;;;;;4975449;28;20031;-59
2022/01/26 05:58:50;;;;;;;5.43;3.22;;;;;;;;;;4974884;28;20115;-59
2022/01/26 06:01:16;;;;;;;4.80;3.42;;;;;;;;;;4975357;28;20050;-59
2022/01/26 06:03:42;;;;;;;4.15;3.03;;;;;;;;;;4974909;28;20365;-59
2022/01/26 06:06:08;;;;;;;4.60;3.08;;;;;;;;;;4972726;28;20117;-58
2022/01/26 06:08:34;;;;;;;5.28;3.53;;;;;;;;;;4974477;28;20376;-58
2022/01/26 06:11:02;;;;;;;4.53;3.42;;;;;;;;;;4975255;28;20031;-59
2022/01/26 06:13:28;;;;;;;4.72;4.00;;;;;;;;;;4974839;28;20029;-59
2022/01/26 06:15:54;;;;;;;4.40;3.10;;;;;;;;;;4975571;28;20038;-59
2022/01/26 06:18:20;;;;;;;4.78;3.35;;;;;;;;;;4975338;28;20022;-58
2022/01/26 06:20:46;;;;;;;3.88;3.10;;;;;;;;;;4974606;28;20213;-58
2022/01/26 06:23:12;;;;;;;5.32;3.58;;;;;;;;;;4975157;28;20105;-59
2022/01/26 06:25:38;;;;;;;5.00;3.38;;;;;;;;;;4974589;28;20420;-58
2022/01/26 06:28:08;;;;;;;4.10;2.90;;;;;;;;;;4975215;28;20030;-59
2022/01/26 06:30:34;;;;;;;4.90;3.10;;;;;;;;;;4974168;28;20066;-58
2022/01/26 06:33:01;;;;;;;5.88;3.92;;;;;;;;;;4975202;28;20034;-58
2022/01/26 06:35:27;;;;;;;4.93;3.15;;;;;;;;;;4974415;28;20384;-55
2022/01/26 06:37:53;;;;;;;3.80;2.70;;;;;;;;;;4975209;28;20023;-59
2022/01/26 06:40:20;;;;;;;4.55;3.35;;;;;;;;;;4974529;28;20031;-59
2022/01/26 06:43:10;;;;;;;4.43;3.17;;;;;;;;;;4974129;28;20038;-59
2022/01/26 06:45:40;;;;;;;4.85;3.50;;;;;;;;;;4973877;28;20085;-59
2022/01/26 06:50:51;;;;;;;4.57;3.30;;;;;;;;;;4970522;28;20066;-59
2022/01/26 06:53:17;;;;;;;4.13;3.15;;;;;;;;;;4974754;28;20066;-60
2022/01/26 06:55:43;;;;;;;4.63;3.60;;;;;;;;;;4974060;28;20026;-59
2022/01/26 06:58:09;;;;;;;5.28;3.85;;;;;;;;;;4974254;28;20023;-59
2022/01/26 07:00:35;;;;;;;4.47;3.28;;;;;;;;;;4970862;28;20383;-59
2022/01/26 07:03:01;;;;;;;4.25;2.85;;;;;;;;;;4974086;28;20042;-59
2022/01/26 07:05:27;;;;;;;5.07;3.30;;;;;;;;;;4973680;28;20030;-60
2022/01/26 07:07:53;;;;;;;5.20;3.30;;;;;;;;;;4974281;28;20030;-59
2022/01/26 07:10:19;;;;;;;5.38;3.78;;;;;;;;;;4974323;28;20472;-59
2022/01/26 07:12:45;;;;;;;5.22;3.58;;;;;;;;;;4973430;28;20030;-59
2022/01/26 07:23:33;;;;;;;3.85;2.90;;;;;;;;;;4957519;28;20050;-59
2022/01/26 07:25:59;;;;;;;3.45;2.70;;;;;;;;;;4974015;28;20464;-59
2022/01/26 07:28:26;;;;;;;4.57;3.25;;;;;;;;;;4973450;28;20113;-59
2022/01/26 07:30:52;;;;;;;4.00;2.80;;;;;;;;;;4973781;28;20363;-58
2022/01/26 07:33:18;;;;;;;4.80;3.75;;;;;;;;;;4974008;28;20027;-59
2022/01/26 07:35:44;;;;;;;3.80;2.80;;;;;;;;;;4973018;28;20023;-59
2022/01/26 07:38:10;;;;;;;4.32;3.30;;;;;;;;;;4973256;28;20460;-58
2022/01/26 07:40:39;;;;;;;5.18;3.28;;;;;;;;;;4971957;28;20027;-59
2022/01/26 07:43:05;;;;;;;4.35;3.65;;;;;;;;;;4981849;28;20565;-59
2022/01/26 07:45:32;;;;;;;4.57;3.08;;;;;;;;;;4972564;28;20074;-60
2022/01/26 07:47:58;;;;;;;5.75;3.60;;;;;;;;;;4973482;28;20121;-59
2022/01/26 07:50:24;;;;;;;5.20;3.47;;;;;;;;;;4973386;28;20023;-60
2022/01/26 07:52:50;;;;;;;5.13;3.08;;;;;;;;;;4972894;28;20046;-60
2022/01/26 07:55:18;;;;;;;4.35;3.53;;;;;;;;;;4971252;28;20049;-59
2022/01/26 07:57:46;;;;;;;4.53;2.75;;;;;;;;;;4972784;28;20058;-60
2022/01/26 08:00:13;;;;;;;3.55;2.83;;;;;;;;;;4973167;28;20042;-59
2022/01/26 08:02:39;;;;;;;4.95;3.28;;;;;;;;;;4972362;28;20094;-59
2022/01/26 08:05:05;;;;;;;4.70;2.95;;;;;;;;;;4973407;28;20034;-59
2022/01/26 08:07:31;;;;;;;3.92;2.88;;;;;;;;;;4976156;28;20114;-59
2022/01/26 08:09:57;;;;;;;5.90;3.65;;;;;;;;;;4979558;28;20066;-61
2022/01/26 08:12:23;;;;;;;8.38;3.22;;;;;;;;;;4973430;28;20038;-51
2022/01/26 08:14:49;;;;;;;4.18;2.95;;;;;;;;;;4972439;28;20085;-58
2022/01/26 08:17:16;;;;;;;6.38;2.88;;;;;;;;;;4975526;28;20030;-54
2022/01/26 08:19:43;;;;;;;4.93;3.00;;;;;;;;;;4974385;28;20077;-50
2022/01/26 08:22:11;;;;;;;5.35;3.08;;;;;;;;;;4966999;28;20161;-49
2022/01/26 08:24:39;;;;;;;7.32;2.63;;;;;;;;;;4972647;28;20038;-56
2022/01/26 08:27:10;;;;;;;6.70;2.95;;;;;;;;;;4971719;28;20048;-53
2022/01/26 08:29:43;;;;;;;8.60;2.97;;;;;;;;;;4972178;28;20043;-48
2022/01/26 08:32:09;;;;;;;6.32;3.10;;;;;;;;;;4971949;28;20098;-52
2022/01/26 08:34:35;;;;;;;5.00;3.03;;;;;;;;;;4969118;28;20023;-50
2022/01/26 08:37:02;;;;;;;5.15;3.63;;;;;;;;;;4976046;28;20046;-52
2022/01/26 08:39:28;;;;;;;9.77;4.63;;;;;;;;;;4972850;28;20117;-59
2022/01/26 08:41:54;;;;;;;4.57;3.00;;;;;;;;;;4972314;28;20027;-59
2022/01/26 08:44:20;;;;;;;5.03;3.70;;;;;;;;;;4972658;28;20031;-58
2022/01/26 08:46:46;;;;;;;7.40;3.38;;;;;;;;;;4970777;28;20081;-58
2022/01/26 08:49:12;;;;;;;4.07;3.03;;;;;;;;;;4969522;28;20031;-53
2022/01/26 08:51:38;;;;;;;6.22;3.70;;;;;;;;;;4971523;28;20046;-51
2022/01/26 08:54:04;;;;;;;7.38;3.35;;;;;;;;;;4972277;28;20471;-56
2022/01/26 08:56:30;;;;;;;6.55;3.35;;;;;;;;;;4971006;28;20029;-58
2022/01/26 08:58:57;;;;;;;7.30;3.38;;;;;;;;;;4975053;28;20110;-57
2022/01/26 09:01:23;;;;;;;4.40;3.00;;;;;;;;;;4977971;28;20051;-60
2022/01/26 09:03:49;;;;;;;4.63;3.13;;;;;;;;;;4976266;28;20566;-59
2022/01/26 09:06:15;;;;;;;8.05;3.10;;;;;;;;;;4976866;28;20035;-53
2022/01/26 09:08:43;;;;;;;4.95;3.03;;;;;;;;;;4976289;28;20065;-52
2022/01/26 09:11:09;;;;;;;9.70;3.60;;;;;;;;;;4976939;28;20030;-58
2022/01/26 09:13:36;;;;;;;11.43;4.88;;;;;;;;;;4976079;28;20440;-53
2022/01/26 09:16:07;;;;;;;5.82;3.35;;;;;;;;;;4976323;28;20030;-56
2022/01/26 09:18:58;;;;;;;6.78;3.70;;;;;;;;;;4992683;28;20018;-57
2022/01/26 09:21:21;;;;;;;6.00;3.33;;;;;;;;;;4981480;28;20035;-58
2022/01/26 09:23:47;;;;;;;3.67;2.75;;;;;;;;;;4976000;28;20031;-58
2022/01/26 09:26:13;;;;;;;8.98;3.30;;;;;;;;;;4975949;28;20487;-55
2022/01/26 09:28:41;;;;;;;4.90;3.45;;;;;;;;;;4975644;28;20027;-52
2022/01/26 09:31:07;;;;;;;4.32;3.10;;;;;;;;;;4975997;28;20035;-58
2022/01/26 09:33:33;;;;;;;6.03;3.30;;;;;;;;;;4975644;28;20037;-59
2022/01/26 09:35:59;;;;;;;5.03;2.83;;;;;;;;;;4975985;28;20033;-57
2022/01/26 09:38:25;;;;;;;5.05;3.53;;;;;;;;;;4976308;28;20038;-58
2022/01/26 09:40:51;;;;;;;5.32;3.45;;;;;;;;;;4974098;28;20019;-59
2022/01/26 09:43:18;;;;;;;6.47;3.58;;;;;;;;;;4975226;28;20066;-54
2022/01/26 09:45:45;;;;;;;5.78;3.92;;;;;;;;;;4975132;28;20030;-58
2022/01/26 09:48:12;;;;;;;3.90;2.75;;;;;;;;;;4975445;28;20581;-58
2022/01/26 09:50:42;;;;;;;5.38;3.28;;;;;;;;;;4974975;28;20070;-59
2022/01/26 09:53:09;;;;;;;5.65;3.58;;;;;;;;;;4975973;28;20070;-58
2022/01/26 09:55:35;;;;;;;5.93;3.70;;;;;;;;;;4974964;28;20109;-53
2022/01/26 09:58:02;;;;;;;4.43;3.00;;;;;;;;;;4973940;28;20031;-59
2022/01/26 10:00:29;;;;;;;8.23;3.17;;;;;;;;;;4975980;28;20031;-59
2022/01/26 10:02:59;;;;;;;4.88;3.10;;;;;;;;;;4975192;28;20066;-59
2022/01/26 10:05:26;;;;;;;5.82;3.10;;;;;;;;;;4975945;28;20027;-58
2022/01/26 10:08:52;;;;;;;5.30;3.20;;;;;;;;;;4975027;28;20027;-59
2022/01/26 10:19:01;;;;;;;7.13;3.53;;;;;;;;;;4974258;28;20038;-54
2022/01/26 10:21:27;;;;;;;7.30;3.35;;;;;;;;;;4972793;28;20081;-58
2022/01/26 10:23:54;;;;;;;8.50;3.40;;;;;;;;;;4975619;28;20245;-55
2022/01/26 10:26:21;;;;;;;5.63;2.90;;;;;;;;;;4975586;28;20027;-56
2022/01/26 10:28:54;;;;;;;7.05;3.40;;;;;;;;;;4974290;28;20042;-57
2022/01/26 10:31:27;;;;;;;4.80;2.78;;;;;;;;;;4975191;28;20027;-58
2022/01/26 10:33:53;;;;;;;6.38;2.53;;;;;;;;;;4974162;28;20023;-59
2022/01/26 10:36:19;;;;;;;6.10;2.97;;;;;;;;;;4972923;28;20104;-57
2022/01/26 10:38:55;;;;;;;4.60;3.13;;;;;;;;;;4973994;28;20045;-57
2022/01/26 10:41:22;;;;;;;6.88;3.40;;;;;;;;;;4975017;28;20058;-56
2022/01/26 10:43:50;;;;;;;4.00;2.80;;;;;;;;;;4993876;28;20497;-55
2022/01/26 10:46:26;;;;;;;5.05;3.45;;;;;;;;;;4987982;28;20448;-56
2022/01/26 10:54:37;;;;;;;5.60;3.35;;;;;;;;;;4974579;28;20038;-54
2022/01/26 10:57:10;;;;;;;5.90;2.63;;;;;;;;;;4974595;28;20027;-56
2022/01/26 10:59:37;;;;;;;4.60;2.97;;;;;;;;;;4974254;28;20400;-56
2022/01/26 11:02:04;;;;;;;4.45;2.97;;;;;;;;;;4974447;28;20105;-55
2022/01/26 11:04:32;;;;;;;4.32;2.67;;;;;;;;;;4974385;28;20038;-57
2022/01/26 11:06:58;;;;;;;4.78;3.00;;;;;;;;;;4973859;28;20031;-56
2022/01/26 11:09:26;;;;;;;4.05;3.17;;;;;;;;;;4973677;28;20120;-57
2022/01/26 11:12:02;;;;;;;4.47;3.30;;;;;;;;;;4974150;28;20026;-56
2022/01/26 11:14:38;;;;;;;4.22;3.15;;;;;;;;;;4974591;28;20391;-56
2022/01/26 11:17:04;;;;;;;4.88;3.05;;;;;;;;;;4974572;28;20486;-55
2022/01/26 11:19:39;;;;;;;4.97;2.85;;;;;;;;;;4974420;28;20023;-53
2022/01/26 11:22:09;;;;;;;3.47;2.50;;;;;;;;;;4973260;28;20372;-56
2022/01/26 11:24:45;;;;;;;4.63;3.17;;;;;;;;;;4973854;28;20035;-58
2022/01/26 11:27:11;;;;;;;5.18;2.83;;;;;;;;;;4977400;28;20037;-58
2022/01/26 11:29:42;;;;;;;4.15;3.00;;;;;;;;;;4974752;28;20082;-56
2022/01/26 11:32:12;;;;;;;5.03;3.50;;;;;;;;;;4972034;28;20034;-52
2022/01/26 11:34:39;;;;;;;5.03;3.28;;;;;;;;;;4973474;28;20106;-57
2022/01/26 11:37:11;;;;;;;5.22;3.45;;;;;;;;;;4974918;28;20030;-55
2022/01/26 11:45:15;;;;;;;7.05;2.97;;;;;;;;;;4970948;28;20118;-52
2022/01/26 11:47:43;;;;;;;5.43;2.78;;;;;;;;;;4974642;28;20042;-54
2022/01/26 11:50:10;;;;;;;8.25;4.13;;;;;;;;;;4971068;28;20027;-52
2022/01/26 11:52:40;;;;;;;4.53;3.33;;;;;;;;;;4970251;28;20412;-58
2022/01/26 11:55:19;;;;;;;8.77;3.38;;;;;;;;;;4969477;28;20110;-58
2022/01/26 11:57:52;;;;;;;9.23;4.03;;;;;;;;;;4967310;28;20506;-63
2022/01/26 12:00:56;;;;;;;5.15;3.30;;;;;;;;;;4974004;28;20113;-57
2022/01/26 12:03:27;;;;;;;8.20;3.88;;;;;;;;;;4964542;28;20058;-56
2022/01/26 12:05:56;;;;;;;7.35;3.03;;;;;;;;;;4972559;28;20029;-57
2022/01/26 12:08:30;;;;;;;6.18;3.38;;;;;;;;;;4972816;28;20023;-60
2022/01/26 12:10:56;;;;;;;4.90;3.30;;;;;;;;;;4972351;28;20530;-60
2022/01/26 12:13:25;;;;;;;8.18;3.25;;;;;;;;;;4971888;28;20399;-59
2022/01/26 12:15:55;;;;;;;4.97;3.25;;;;;;;;;;4972641;28;20038;-60
2022/01/26 12:18:30;;;;;;;5.40;3.35;;;;;;;;;;4973263;28;20034;-59
2022/01/26 12:32:15;;;;;;;5.35;3.88;;;;;;;;;;4972164;28;20381;-58
2022/01/26 12:45:17;;;;;;;7.05;3.38;;;;;;;;;;4973086;28;20038;-60
2022/01/26 12:47:43;;;;;;;5.20;3.00;;;;;;;;;;4972615;28;20106;-55
2022/01/26 12:50:09;;;;;;;4.43;2.72;;;;;;;;;;4972321;28;20023;-59
2022/01/26 12:52:36;;;;;;;5.32;3.45;;;;;;;;;;4972609;28;20034;-60
2022/01/26 12:55:03;;;;;;;8.63;3.50;;;;;;;;;;4972331;28;20030;-60
2022/01/26 12:57:29;;;;;;;3.88;2.65;;;;;;;;;;4972213;28;20037;-62
2022/01/26 13:00:05;;;;;;;7.65;3.42;;;;;;;;;;4971833;28;20105;-59
2022/01/26 13:02:31;;;;;;;6.15;3.00;;;;;;;;;;4971749;28;20043;-59
2022/01/26 13:05:00;;;;;;;6.03;3.80;;;;;;;;;;4972291;28;20434;-57
2022/01/26 13:07:26;;;;;;;6.13;3.78;;;;;;;;;;4971803;28;20102;-58
2022/01/26 13:09:52;;;;;;;5.55;2.65;;;;;;;;;;4972148;28;20079;-50
2022/01/26 13:12:28;;;;;;;10.25;3.17;;;;;;;;;;4972704;28;20034;-49
2022/01/26 13:15:07;;;;;;;4.82;2.70;;;;;;;;;;4958411;28;20030;-51
2022/01/26 13:17:40;;;;;;;9.30;3.10;;;;;;;;;;4972451;28;20383;-50
2022/01/26 13:28:08;;;;;;;24.25;3.55;;;;;;;;;;4971692;28;20062;-51
2022/01/26 13:30:52;;;;;;;8.10;3.47;;;;;;;;;;4972100;28;20412;-49
2022/01/26 13:38:55;;;;;;;7.13;3.00;;;;;;;;;;4956420;28;20026;-48
2022/01/26 13:59:29;;;;;;;5.30;3.08;;;;;;;;;;4975364;28;20110;-51
2022/01/26 14:01:56;;;;;;;8.55;2.72;;;;;;;;;;4974734;28;20030;-47
2022/01/26 14:04:22;;;;;;;4.45;2.75;;;;;;;;;;4974100;28;20023;-46
2022/01/26 14:06:49;;;;;;;5.55;3.08;;;;;;;;;;4972808;28;20109;-50
2022/01/26 14:09:15;;;;;;;6.55;2.80;;;;;;;;;;4973316;28;20070;-51
2022/01/26 14:11:45;;;;;;;5.88;2.55;;;;;;;;;;4972904;28;20056;-45
2022/01/26 14:14:13;;;;;;;12.52;3.70;;;;;;;;;;4966901;28;20042;-48
2022/01/26 14:16:44;;;;;;;6.63;2.90;;;;;;;;;;4974551;28;20105;-53
2022/01/26 14:19:27;;;;;;;6.80;2.92;;;;;;;;;;4973755;28;20566;-47
2022/01/26 14:22:27;;;;;;;5.82;2.97;;;;;;;;;;4972911;28;20035;-44
2022/01/26 14:27:19;;;;;;;9.10;3.20;;;;;;;;;;4974772;28;20078;-49
2022/01/26 15:34:41;;;;;;;;;;;;;;;;;;4973884;28;20046;-47
2022/01/26 15:40:19;;;;;;;4.30;2.10;;;;;;;;;;4971462;28;20158;-47
2022/01/26 15:50:59;;;;;;;6.32;2.45;;;;;;;;;;4972740;28;20074;-49
2022/01/26 16:18:36;;;;;;;5.25;2.35;;;;;;;;;;4972463;28;20090;-47
2022/01/26 17:46:41;;;;;;;8.77;3.03;;;;;;;;;;4975966;28;20049;-66
2022/01/26 17:46:59;;;;;;;7.43;2.83;;;;;;;;;;4963640;28;20043;-49
2022/01/26 18:33:26;;;;;;;7.10;3.38;;;;;;;;;;4975193;28;20046;-52
2022/01/26 18:51:48;;;;;;;8.40;4.20;;;;;;;;;;4974653;28;20041;-48
2022/01/26 18:54:14;;;;;;;7.90;4.15;;;;;;;;;;4974702;28;20111;-48
2022/01/26 18:56:41;;;;;;;17.77;3.90;;;;;;;;;;4974100;28;20444;-50
2022/01/26 18:59:08;;;;;;;15.45;4.13;;;;;;;;;;4974161;28;20073;-48
2022/01/26 19:01:34;;;;;;;13.30;3.80;;;;;;;;;;4973861;28;20038;-54
2022/01/26 19:04:01;;;;;;;13.32;4.00;;;;;;;;;;4972751;28;20395;-51
2022/01/26 19:06:27;;;;;;;13.85;3.25;;;;;;;;;;4974589;28;20031;-51
2022/01/26 19:08:53;;;;;;;31.77;4.72;;;;;;;;;;4973337;28;20027;-51
2022/01/26 19:11:21;;;;;;;21.15;4.38;;;;;;;;;;4974294;28;20031;-53
2022/01/26 19:13:48;;;;;;;8.77;3.80;;;;;;;;;;4963602;28;20038;-51
2022/01/26 19:16:31;;;;;;;6.65;3.45;;;;;;;;;;4966099;28;20035;-54
2022/01/26 19:19:09;;;;;;;7.65;3.65;;;;;;;;;;4968153;28;20030;-50
2022/01/26 19:26:54;;;;;;;7.78;3.42;;;;;;;;;;4973266;28;20110;-58
2022/01/26 19:32:17;;;;;;;9.05;3.70;;;;;;;;;;4973021;28;20043;-56
2022/01/26 19:41:08;;;;;;;6.80;3.67;;;;;;;;;;4971244;28;20436;-53
2022/01/26 19:51:19;;;;;;;8.50;3.45;;;;;;;;;;4973499;28;20041;-48
2022/01/26 19:53:45;;;;;;;9.93;3.30;;;;;;;;;;4972546;28;20031;-49
2022/01/26 19:56:11;;;;;;;12.38;4.00;;;;;;;;;;4972478;28;20403;-53
2022/01/26 19:58:37;;;;;;;8.55;3.53;;;;;;;;;;4971741;28;20395;-49
2022/01/26 20:01:05;;;;;;;7.22;3.50;;;;;;;;;;4973160;28;20034;-47
2022/01/26 20:03:34;;;;;;;5.90;3.30;;;;;;;;;;4973043;28;20045;-49
2022/01/26 20:06:00;;;;;;;11.82;4.97;;;;;;;;;;4972809;28;20034;-49
2022/01/26 20:10:59;;;;;;;7.78;3.47;;;;;;;;;;4972800;28;20031;-50
2022/01/26 20:13:32;;;;;;;6.68;3.22;;;;;;;;;;4972948;28;20035;-53
2022/01/26 20:16:00;;;;;;;6.43;3.67;;;;;;;;;;4971766;28;20042;-54
2022/01/26 20:18:26;;;;;;;8.90;4.00;;;;;;;;;;4972665;28;20077;-53
2022/01/26 20:20:58;;;;;;;6.60;3.15;;;;;;;;;;4972608;28;20023;-51
2022/01/26 20:23:27;;;;;;;6.75;3.70;;;;;;;;;;4972157;28;20031;-56
2022/01/26 20:25:58;;;;;;;7.40;3.58;;;;;;;;;;4972071;28;20027;-54
2022/01/26 20:28:25;;;;;;;9.50;4.45;;;;;;;;;;4972748;28;20057;-54
2022/01/26 20:30:51;;;;;;;7.22;3.45;;;;;;;;;;4972900;28;20035;-54
2022/01/26 20:33:17;;;;;;;5.47;3.35;;;;;;;;;;4970099;28;20037;-53
2022/01/26 20:35:43;;;;;;;9.02;3.83;;;;;;;;;;4972202;28;20030;-54
2022/01/26 20:38:10;;;;;;;5.63;3.47;;;;;;;;;;4972702;28;20472;-52
2022/01/26 20:40:36;;;;;;;5.93;3.38;;;;;;;;;;4973089;28;20042;-50
2022/01/26 20:43:02;;;;;;;6.75;3.42;;;;;;;;;;4974746;28;20038;-49
2022/01/26 20:45:30;;;;;;;6.93;3.47;;;;;;;;;;4973174;28;20056;-48
2022/01/26 20:47:57;;;;;;;6.13;3.38;;;;;;;;;;4971597;28;20039;-54
2022/01/26 20:50:24;;;;;;;8.85;3.13;;;;;;;;;;4972754;28;20077;-49
2022/01/26 20:52:50;;;;;;;6.78;3.30;;;;;;;;;;4972574;28;20175;-55
2022/01/26 20:55:16;;;;;;;12.82;3.22;;;;;;;;;;4976710;28;20157;-58
2022/01/26 20:57:42;;;;;;;4.38;3.10;;;;;;;;;;4976895;28;20030;-50
2022/01/26 21:00:10;;;;;;;7.60;3.58;;;;;;;;;;4976541;28;20027;-49
2022/01/26 21:02:36;;;;;;;7.35;3.55;;;;;;;;;;4976496;28;20101;-55
2022/01/26 21:05:03;;;;;;;4.88;3.60;;;;;;;;;;4976169;28;20039;-52
2022/01/26 21:07:29;;;;;;;10.23;2.88;;;;;;;;;;4976733;28;20027;-49
2022/01/26 21:09:55;;;;;;;8.57;3.10;;;;;;;;;;4975979;28;20023;-51
2022/01/26 21:12:21;;;;;;;6.75;3.88;;;;;;;;;;4976998;28;20345;-51
2022/01/26 21:14:47;;;;;;;5.63;3.25;;;;;;;;;;4975801;28;20030;-49
2022/01/26 21:17:13;;;;;;;4.97;2.88;;;;;;;;;;4976257;28;20035;-52
2022/01/26 21:19:40;;;;;;;5.72;3.22;;;;;;;;;;4975855;28;20391;-51
2022/01/26 21:22:06;;;;;;;5.18;3.03;;;;;;;;;;4975811;28;20035;-52
2022/01/26 21:24:32;;;;;;;5.25;3.35;;;;;;;;;;4976460;28;20034;-54
2022/01/26 21:26:58;;;;;;;4.50;2.70;;;;;;;;;;4973325;28;20077;-52
2022/01/26 21:29:25;;;;;;;5.47;3.47;;;;;;;;;;4975527;28;20047;-55
2022/01/26 21:31:51;;;;;;;6.43;3.25;;;;;;;;;;4974505;28;20030;-54
2022/01/26 21:34:18;;;;;;;5.88;3.30;;;;;;;;;;4977501;28;20039;-55
2022/01/26 21:36:44;;;;;;;4.90;3.20;;;;;;;;;;4985909;28;20387;-65
2022/01/26 21:39:10;;;;;;;3.58;2.53;;;;;;;;;;4975539;28;20027;-55
2022/01/26 21:41:36;;;;;;;5.20;3.22;;;;;;;;;;4975067;28;20118;-56
2022/01/26 21:44:04;;;;;;;8.55;3.10;;;;;;;;;;4974690;28;20035;-55
2022/01/26 21:46:30;;;;;;;5.82;2.78;;;;;;;;;;4975286;28;20110;-55
2022/01/26 21:48:56;;;;;;;4.82;3.13;;;;;;;;;;4978223;28;20105;-59
2022/01/26 21:51:22;;;;;;;6.07;3.30;;;;;;;;;;4975353;28;20027;-56
2022/01/26 21:53:48;;;;;;;3.83;2.40;;;;;;;;;;4974164;28;20026;-64
2022/01/26 21:56:14;;;;;;;6.65;3.25;;;;;;;;;;4975053;28;20384;-56
2022/01/26 21:58:40;;;;;;;5.18;3.20;;;;;;;;;;4974832;28;20023;-56
2022/01/26 22:01:06;;;;;;;5.53;3.40;;;;;;;;;;4980303;28;20038;-55
2022/01/26 22:03:32;;;;;;;5.47;3.20;;;;;;;;;;4983285;28;20084;-57
2022/01/26 22:05:58;;;;;;;6.97;3.50;;;;;;;;;;4980932;28;20035;-55
2022/01/26 22:08:25;;;;;;;4.50;3.20;;;;;;;;;;4981246;28;20046;-56
2022/01/26 22:10:51;;;;;;;6.13;2.88;;;;;;;;;;4982911;28;20027;-55